Rhinelander, Wisconsin
Current Conditions -  °F | °C
As of 10:53 AM on Sunday 21 Dec 2014 (Local Time) from KRHI Reporting Station
Haze Haze  
Wind Chill: 20°   Ceiling: 500
Heat Index: 29°   Visibility: 2mi
Dew Point: 27°   Wind: 10mph
Humidity: 92%   Direction: 160°SSE
Pressure: 29.98"   Gusts: NA
Location:  45.64°N, 89.41°W
Report Text: KRHI 211653Z AUTO 16009KT 2SM BR OVC005 M02/M03 A2998 RMK AO2 SLP173 T10171028
Loading
Personal Weather Stations






























Interactive Weather Map New forecast layout! Learn more

10-Day Weather Forecast

Advertisements
Track Severe Weather on mobile